createdAt,value
2022-12-16T00:01:50.207Z,120.75
2022-12-16T00:07:14.233Z,122.33
2022-12-16T00:12:36.512Z,115.40
2022-12-16T00:17:59.249Z,119.55
2022-12-16T00:23:21.860Z,136.87
2022-12-16T00:28:47.368Z,113.97
2022-12-16T00:34:10.523Z,117.53
2022-12-16T00:39:32.895Z,138.10
2022-12-16T00:44:55.105Z,127.20
2022-12-16T00:50:17.667Z,126.60
2022-12-16T00:55:39.890Z,130.82
2022-12-16T01:01:03.860Z,145.43
2022-12-16T01:06:28.979Z,139.55
2022-12-16T01:11:51.346Z,137.47
2022-12-16T01:17:14.280Z,139.57
2022-12-16T01:22:38.198Z,138.60
2022-12-16T01:28:00.400Z,146.18
2022-12-16T01:33:23.355Z,147.50
2022-12-16T01:38:48.015Z,145.00
2022-12-16T01:44:29.976Z,144.10
2022-12-16T01:50:18.051Z,136.33
2022-12-16T01:55:55.623Z,141.10
2022-12-16T02:01:19.204Z,137.57
2022-12-16T02:06:42.646Z,133.82
2022-12-16T02:12:18.247Z,130.12
2022-12-16T02:17:53.783Z,129.03
2022-12-16T02:23:41.637Z,142.35
2022-12-16T02:29:43.225Z,139.90
2022-12-16T02:35:31.115Z,129.78
2022-12-16T02:41:17.092Z,131.75
2022-12-16T02:46:46.419Z,143.17
2022-12-16T02:52:10.477Z,133.12
2022-12-16T02:57:56.579Z,134.43
2022-12-16T03:03:29.854Z,128.27
2022-12-16T03:08:57.926Z,131.32
2022-12-16T03:14:23.329Z,131.85
2022-12-16T03:19:48.530Z,130.97
2022-12-16T03:25:12.545Z,140.40
2022-12-16T03:30:40.363Z,130.90
2022-12-16T03:36:06.785Z,130.93
2022-12-16T03:41:30.586Z,132.07
2022-12-16T03:46:53.436Z,129.93
2022-12-16T03:52:15.970Z,121.15
2022-12-16T03:57:38.625Z,123.25
2022-12-16T04:03:01.501Z,117.35
2022-12-16T04:08:24.083Z,119.72
2022-12-16T04:14:04.395Z,120.57
2022-12-16T04:19:49.451Z,126.30
2022-12-16T04:25:24.961Z,124.47
2022-12-16T04:30:48.386Z,131.30
2022-12-16T04:36:19.066Z,122.17
2022-12-16T04:42:29.455Z,120.70
2022-12-16T04:48:09.410Z,118.90
2022-12-16T04:53:50.024Z,122.03
2022-12-16T04:59:30.491Z,121.73
2022-12-16T05:05:10.571Z,127.03
2022-12-16T05:10:51.154Z,127.43
2022-12-16T05:16:31.883Z,127.90
2022-12-16T05:22:11.914Z,129.73
2022-12-16T05:27:52.148Z,120.17
2022-12-16T05:33:32.367Z,124.83
2022-12-16T05:39:12.485Z,130.67
2022-12-16T05:44:52.655Z,127.73
2022-12-16T05:50:33.099Z,121.17
2022-12-16T05:56:14.314Z,123.75
2022-12-16T06:01:54.397Z,134.75
2022-12-16T06:07:34.803Z,119.67
2022-12-16T06:13:17.100Z,138.70
2022-12-16T06:18:56.880Z,139.17
2022-12-16T06:24:37.799Z,136.37
2022-12-16T06:30:18.008Z,141.32
2022-12-16T06:35:57.930Z,132.70
2022-12-16T06:41:38.183Z,134.03
2022-12-16T06:47:18.664Z,143.00
2022-12-16T06:52:58.542Z,148.45
2022-12-16T06:58:38.752Z,143.77
2022-12-16T07:04:18.955Z,135.73
2022-12-16T07:09:58.872Z,145.65
2022-12-16T07:15:39.003Z,146.18
2022-12-16T07:21:18.859Z,140.12
2022-12-16T07:26:59.212Z,137.68
2022-12-16T07:32:39.954Z,131.87
2022-12-16T07:38:20.783Z,139.05
2022-12-16T07:44:00.740Z,142.93
2022-12-16T07:55:25.588Z,118.20
2022-12-16T08:01:09.881Z,121.53
2022-12-16T08:06:53.238Z,134.27
2022-12-16T08:12:35.669Z,137.80
2022-12-16T08:18:21.731Z,133.20
2022-12-16T08:24:01.997Z,151.87
2022-12-16T08:29:45.393Z,148.00
2022-12-16T08:35:25.723Z,148.13
2022-12-16T08:41:08.051Z,144.37
2022-12-16T08:46:49.625Z,141.20
2022-12-16T08:52:30.434Z,134.87
2022-12-16T08:58:18.518Z,153.97
2022-12-16T09:04:01.492Z,138.03
2022-12-16T09:09:42.053Z,153.57
2022-12-16T09:15:24.603Z,146.57
2022-12-16T09:21:07.706Z,152.15
2022-12-16T09:26:50.586Z,161.17
2022-12-16T09:32:31.008Z,162.90
2022-12-16T09:38:14.285Z,153.25
2022-12-16T09:44:20.681Z,154.13
2022-12-16T09:50:15.778Z,146.93
2022-12-16T09:56:06.976Z,149.60
2022-12-16T10:01:51.869Z,151.18
2022-12-16T10:07:44.010Z,150.75
2022-12-16T10:13:39.574Z,179.00
2022-12-16T10:19:46.747Z,163.03
2022-12-16T10:25:38.531Z,153.50
2022-12-16T10:31:26.744Z,155.32
2022-12-16T10:37:12.301Z,156.77
2022-12-16T10:42:59.754Z,153.03
2022-12-16T10:48:50.235Z,147.87
2022-12-16T10:54:48.856Z,145.67
2022-12-16T11:00:41.454Z,156.60
2022-12-16T11:06:24.968Z,140.00
2022-12-16T11:12:09.123Z,161.20
2022-12-16T11:18:03.466Z,159.27
2022-12-16T11:24:02.755Z,198.97
2022-12-16T11:29:46.588Z,161.10
2022-12-16T11:35:30.579Z,152.50
2022-12-16T11:41:10.746Z,158.82
2022-12-16T11:46:58.327Z,157.83
2022-12-16T11:52:45.297Z,157.57
2022-12-16T11:58:50.248Z,159.77
2022-12-16T12:04:29.408Z,149.47
2022-12-16T12:10:37.304Z,154.30
2022-12-16T12:16:22.530Z,149.30
2022-12-16T12:22:11.741Z,176.83
2022-12-16T12:27:59.193Z,173.65
2022-12-16T12:34:03.479Z,180.93
2022-12-16T12:39:51.536Z,178.03
2022-12-16T12:45:54.794Z,171.27
2022-12-16T12:51:58.426Z,162.90
2022-12-16T12:57:43.617Z,148.83
2022-12-16T13:03:44.249Z,158.10
2022-12-16T13:15:14.484Z,148.27
2022-12-16T13:21:12.248Z,136.60
2022-12-16T13:26:58.806Z,146.70
2022-12-16T13:32:54.523Z,139.87
2022-12-16T13:38:51.686Z,147.30
2022-12-16T13:44:38.046Z,156.40
2022-12-16T13:50:32.065Z,148.43
2022-12-16T13:56:25.249Z,139.57
2022-12-16T14:02:29.457Z,140.37
2022-12-16T14:08:14.143Z,140.10
2022-12-16T14:20:41.036Z,158.37
2022-12-16T14:26:24.221Z,168.83
2022-12-16T14:32:08.870Z,154.33
2022-12-16T14:38:00.029Z,205.23
2022-12-16T14:43:50.180Z,154.43
2022-12-16T14:49:34.404Z,156.30
2022-12-16T14:55:18.425Z,170.93
2022-12-16T15:01:02.391Z,163.30
2022-12-16T15:06:55.121Z,155.30
2022-12-16T15:12:37.689Z,156.50
2022-12-16T15:18:28.974Z,154.30
2022-12-16T15:24:13.665Z,148.13
2022-12-16T15:30:06.625Z,147.73
2022-12-16T15:36:05.932Z,152.70
2022-12-16T15:42:09.473Z,156.80
2022-12-16T15:48:04.400Z,136.47
2022-12-16T15:54:05.555Z,142.80
2022-12-16T16:00:03.960Z,139.50
2022-12-16T16:05:50.156Z,148.50
2022-12-16T16:11:30.300Z,145.13
2022-12-16T16:17:10.115Z,144.37
2022-12-16T16:22:52.290Z,144.22
2022-12-16T16:28:32.945Z,146.35
2022-12-16T16:34:12.992Z,151.47
2022-12-16T16:39:52.798Z,142.28
2022-12-16T16:45:35.019Z,151.07
2022-12-16T16:51:15.059Z,142.77
2022-12-16T16:56:55.919Z,148.73
2022-12-16T17:02:41.451Z,141.85
2022-12-16T17:08:21.115Z,139.57
2022-12-16T17:14:00.915Z,146.20
2022-12-16T17:19:40.830Z,142.07
2022-12-16T17:25:21.015Z,154.10
2022-12-16T17:31:01.323Z,144.30
2022-12-16T17:36:42.472Z,157.22
2022-12-16T17:42:22.470Z,147.07
2022-12-16T17:48:02.758Z,157.35
2022-12-16T17:53:43.005Z,168.83
2022-12-16T17:59:23.283Z,160.70
2022-12-16T18:05:03.207Z,161.20
2022-12-16T18:10:43.797Z,150.40
2022-12-16T18:16:30.152Z,173.60
2022-12-16T18:22:10.382Z,146.97
2022-12-16T18:27:50.398Z,144.70
2022-12-16T18:33:30.720Z,185.97
2022-12-16T18:39:10.778Z,134.93
2022-12-16T18:44:53.816Z,140.13
2022-12-16T18:50:37.781Z,150.20
2022-12-16T18:56:26.246Z,146.17
2022-12-16T19:02:06.280Z,145.23
2022-12-16T19:07:47.962Z,137.87
2022-12-16T19:13:30.351Z,133.30
2022-12-16T19:19:12.752Z,130.10
2022-12-16T19:24:52.145Z,130.50
2022-12-16T19:30:32.943Z,135.07
2022-12-16T19:36:13.043Z,134.12
2022-12-16T19:41:56.195Z,125.67
2022-12-16T19:47:35.578Z,128.15
2022-12-16T19:53:15.605Z,118.20
2022-12-16T19:58:56.915Z,115.77
2022-12-16T20:04:37.112Z,108.73
2022-12-16T20:10:07.045Z,111.17
2022-12-16T20:15:57.110Z,116.23
2022-12-16T20:21:38.853Z,105.97
2022-12-16T20:27:18.749Z,113.33
2022-12-16T20:32:58.934Z,111.17
2022-12-16T20:38:39.216Z,103.50
2022-12-16T20:44:22.242Z,103.20
2022-12-16T20:50:03.301Z,97.37
2022-12-16T20:55:43.595Z,102.27
2022-12-16T21:01:25.849Z,90.17
2022-12-16T21:07:06.297Z,92.03
2022-12-16T21:12:46.325Z,92.00
2022-12-16T21:18:27.855Z,97.20
2022-12-16T21:24:08.046Z,84.22
2022-12-16T21:29:49.105Z,91.33
2022-12-16T21:35:29.229Z,85.63
2022-12-16T21:41:11.158Z,92.27
2022-12-16T21:46:51.845Z,86.20
2022-12-16T21:52:31.733Z,82.27
2022-12-16T21:58:13.376Z,84.60
2022-12-16T22:03:59.498Z,88.50
2022-12-16T22:09:39.726Z,82.80
2022-12-16T22:15:20.049Z,83.77
2022-12-16T22:20:59.866Z,91.73
2022-12-16T22:26:40.703Z,69.50
2022-12-16T22:32:21.196Z,76.53
2022-12-16T22:38:01.688Z,88.33
2022-12-16T22:43:42.003Z,84.17
2022-12-16T22:49:25.188Z,85.13
2022-12-16T22:55:05.081Z,75.73
2022-12-16T23:00:46.986Z,70.20
2022-12-16T23:06:27.005Z,75.77
2022-12-16T23:12:12.364Z,66.57
2022-12-16T23:17:52.236Z,68.80
2022-12-16T23:23:32.938Z,63.60
2022-12-16T23:29:15.247Z,72.43
2022-12-16T23:34:54.937Z,63.92
2022-12-16T23:40:36.036Z,67.03
2022-12-16T23:46:15.989Z,60.83
2022-12-16T23:51:55.987Z,71.63
2022-12-16T23:57:37.573Z,76.07
